Time;durP1;ratioP1;P1;durP2;ratioP2;P2;SDS_P1;SDS_P2;PMS_P1;PMS_P2;Temp;Humidity;BMP_temperature;BMP_pressure;BME280_temperature;BME280_humidity;BME280_pressure;Samples;Min_cycle;Max_cycle;Signal;HPM_P1;HPM_P2
2022/04/03 00:01:35;;;;;;;13.53;10.60;;;0.90;99.90;;;;;;4952820;28;21392;-83
2022/04/03 00:04:01;;;;;;;12.70;10.77;;;1.10;99.90;;;;;;4943282;28;20244;-84
2022/04/03 00:06:26;;;;;;;12.63;11.17;;;1.00;99.90;;;;;;4963436;28;20599;-84
2022/04/03 00:08:52;;;;;;;11.33;9.73;;;1.00;99.90;;;;;;4950868;28;20182;-83
2022/04/03 00:11:17;;;;;;;11.10;9.63;;;1.00;99.90;;;;;;4945365;28;20288;-84
2022/04/03 00:13:43;;;;;;;13.03;9.57;;;0.90;99.90;;;;;;4962764;28;20189;-83
2022/04/03 00:16:09;;;;;;;10.03;8.87;;;1.00;99.90;;;;;;4952180;28;20190;-83
2022/04/03 00:18:36;;;;;;;10.00;9.00;;;1.10;99.90;;;;;;4956016;28;20473;-83
2022/04/03 00:21:02;;;;;;;11.53;9.53;;;1.10;99.90;;;;;;4940305;28;20492;-84
2022/04/03 00:23:27;;;;;;;11.73;9.70;;;1.00;99.90;;;;;;4972359;28;20538;-84
2022/04/03 00:25:53;;;;;;;9.93;8.90;;;1.00;99.90;;;;;;4952761;28;20178;-84
2022/04/03 00:28:20;;;;;;;9.87;8.87;;;1.00;99.90;;;;;;4959842;28;20268;-84
2022/04/03 00:30:49;;;;;;;9.60;8.57;;;1.10;99.90;;;;;;4947864;28;20197;-84
2022/04/03 00:33:14;;;;;;;10.70;9.10;;;1.10;99.90;;;;;;4961015;28;20457;-84
2022/04/03 00:35:40;;;;;;;11.73;9.80;;;1.00;99.90;;;;;;4950499;28;20950;-84
2022/04/03 00:38:09;;;;;;;9.67;8.77;;;1.10;99.90;;;;;;4943183;28;20604;-84
2022/04/03 00:40:34;;;;;;;11.67;9.37;;;1.10;99.90;;;;;;4967230;28;20436;-84
2022/04/03 00:43:00;;;;;;;10.40;9.40;;;1.10;99.90;;;;;;4946805;28;21309;-84
2022/04/03 00:45:28;;;;;;;10.77;9.13;;;1.10;99.90;;;;;;4944339;28;24141;-84
2022/04/03 00:47:56;;;;;;;9.77;8.83;;;1.20;99.90;;;;;;4942491;28;20790;-83
2022/04/03 00:50:24;;;;;;;10.57;9.47;;;1.20;99.90;;;;;;4965961;28;20900;-84
2022/04/03 00:52:49;;;;;;;10.73;8.97;;;1.20;99.90;;;;;;4957227;28;20445;-84
2022/04/03 00:55:15;;;;;;;10.30;9.03;;;1.20;99.90;;;;;;4948403;28;20443;-84
2022/04/03 00:57:43;;;;;;;12.27;9.10;;;1.20;99.90;;;;;;4939709;28;20191;-84
2022/04/03 01:00:09;;;;;;;11.50;9.50;;;1.20;99.90;;;;;;4940085;28;20190;-84
2022/04/03 01:02:35;;;;;;;10.63;9.27;;;1.20;99.90;;;;;;4946248;28;20571;-84
2022/04/03 01:05:02;;;;;;;11.73;9.10;;;1.10;99.90;;;;;;4945373;28;20449;-84
2022/04/03 01:07:28;;;;;;;12.10;9.83;;;1.20;99.90;;;;;;4939921;28;20232;-83
2022/04/03 01:09:53;;;;;;;11.67;10.20;;;1.20;99.90;;;;;;4945924;28;20442;-83
2022/04/03 01:12:19;;;;;;;12.80;9.83;;;1.20;99.90;;;;;;4939871;28;20464;-84
2022/04/03 01:14:44;;;;;;;12.03;10.47;;;1.10;99.90;;;;;;4964135;28;20311;-83
2022/04/03 01:17:13;;;;;;;12.27;10.37;;;1.10;99.90;;;;;;4947704;28;20388;-84
2022/04/03 01:19:40;;;;;;;10.83;9.73;;;1.10;99.90;;;;;;4952879;28;20471;-83
2022/04/03 01:22:12;;;;;;;14.00;11.43;;;1.10;99.90;;;;;;4965397;28;20515;-83
2022/04/03 01:24:42;;;;;;;12.47;11.10;;;1.10;99.90;;;;;;4972516;28;20483;-84
2022/04/03 01:27:11;;;;;;;15.10;10.93;;;1.10;99.90;;;;;;4952050;28;20873;-84
2022/04/03 01:29:39;;;;;;;14.33;10.70;;;1.10;99.90;;;;;;4947288;28;21259;-84
2022/04/03 01:32:06;;;;;;;11.70;9.97;;;1.10;99.90;;;;;;4951914;28;20472;-84
2022/04/03 01:34:31;;;;;;;13.13;10.60;;;1.00;99.90;;;;;;4954058;28;20452;-84
2022/04/03 01:36:57;;;;;;;13.60;10.27;;;1.00;99.90;;;;;;4950826;28;20463;-84
2022/04/03 01:39:24;;;;;;;11.40;10.17;;;1.10;99.90;;;;;;4948514;28;20214;-84
2022/04/03 01:41:49;;;;;;;11.80;10.50;;;1.20;99.90;;;;;;4969303;28;20835;-84
2022/04/03 01:44:15;;;;;;;12.40;9.90;;;1.30;99.90;;;;;;4962197;28;20445;-84
2022/04/03 01:46:43;;;;;;;12.60;10.03;;;1.30;99.90;;;;;;4949224;28;20197;-83
2022/04/03 01:49:09;;;;;;;10.60;9.20;;;1.40;99.90;;;;;;4958472;28;20268;-84
2022/04/03 01:51:35;;;;;;;11.53;10.40;;;1.40;99.90;;;;;;4951572;28;20445;-83
2022/04/03 01:54:03;;;;;;;12.90;10.23;;;1.40;99.90;;;;;;4976215;28;20175;-84
2022/04/03 01:56:29;;;;;;;12.80;10.03;;;1.50;99.90;;;;;;4954730;28;20508;-84
2022/04/03 01:59:03;;;;;;;10.87;9.67;;;1.40;99.90;;;;;;4967755;28;20522;-84
2022/04/03 02:01:33;;;;;;;13.13;10.00;;;1.40;99.90;;;;;;4957440;28;20488;-84
2022/04/03 02:04:00;;;;;;;12.53;10.40;;;1.40;99.90;;;;;;4963768;28;20469;-83
2022/04/03 02:06:26;;;;;;;11.57;9.70;;;1.40;99.90;;;;;;4963765;28;20675;-83
2022/04/03 02:08:51;;;;;;;11.70;9.87;;;1.40;99.90;;;;;;4945385;28;21055;-84
2022/04/03 02:11:17;;;;;;;11.60;10.33;;;1.40;99.90;;;;;;4941699;28;20445;-84
2022/04/03 02:13:42;;;;;;;13.20;10.07;;;1.40;99.90;;;;;;4944641;28;20521;-84
2022/04/03 02:16:11;;;;;;;11.37;10.00;;;1.30;99.90;;;;;;4950564;28;20319;-84
2022/04/03 02:18:37;;;;;;;12.47;10.70;;;1.30;99.90;;;;;;4954013;28;20190;-84
2022/04/03 02:21:03;;;;;;;11.60;9.80;;;1.40;99.90;;;;;;4953453;28;20847;-84
2022/04/03 02:23:29;;;;;;;13.10;10.87;;;1.30;99.90;;;;;;4956905;28;20449;-84
2022/04/03 02:25:57;;;;;;;11.87;10.47;;;1.20;99.90;;;;;;4954113;28;20198;-84
2022/04/03 02:28:23;;;;;;;13.77;10.77;;;1.20;99.90;;;;;;4947141;28;20527;-84
2022/04/03 02:30:49;;;;;;;13.70;10.50;;;1.30;99.90;;;;;;4972856;28;21334;-84
2022/04/03 02:33:15;;;;;;;12.43;11.00;;;1.20;99.90;;;;;;4960469;28;20189;-85
2022/04/03 02:35:40;;;;;;;13.80;10.60;;;1.20;99.90;;;;;;4961598;28;20506;-84
2022/04/03 02:38:07;;;;;;;15.30;11.80;;;1.20;99.90;;;;;;4961194;28;20190;-84
2022/04/03 02:40:36;;;;;;;12.80;11.20;;;1.20;99.90;;;;;;4956445;28;20186;-84
2022/04/03 02:43:02;;;;;;;12.40;10.80;;;1.30;99.90;;;;;;4967434;28;20611;-84
2022/04/03 02:45:28;;;;;;;13.87;10.63;;;1.30;99.90;;;;;;4951969;28;20455;-84
2022/04/03 02:47:55;;;;;;;15.17;11.00;;;1.40;99.90;;;;;;4947381;28;20456;-84
2022/04/03 02:50:24;;;;;;;15.10;11.60;;;1.30;99.90;;;;;;4950051;28;20461;-85
2022/04/03 02:52:51;;;;;;;14.67;12.00;;;1.30;99.90;;;;;;4972916;28;20483;-83
2022/04/03 02:55:19;;;;;;;12.50;10.43;;;1.30;99.90;;;;;;4957935;28;20445;-84
2022/04/03 02:57:45;;;;;;;14.70;11.33;;;1.40;99.90;;;;;;4945308;28;21104;-84
2022/04/03 03:00:14;;;;;;;15.60;11.40;;;1.40;99.90;;;;;;4963832;28;21022;-84
2022/04/03 03:02:44;;;;;;;16.40;12.43;;;1.50;99.90;;;;;;4956348;28;20488;-84
2022/04/03 03:05:14;;;;;;;15.13;11.77;;;1.40;99.90;;;;;;4949747;28;21302;-84
2022/04/03 03:07:41;;;;;;;14.23;11.70;;;1.40;99.90;;;;;;4968016;28;21020;-83
2022/04/03 03:10:08;;;;;;;14.97;11.80;;;1.40;99.90;;;;;;4960629;28;20449;-84
2022/04/03 03:12:34;;;;;;;20.57;16.23;;;1.30;99.90;;;;;;4941566;28;20476;-84
2022/04/03 03:15:00;;;;;;;30.27;18.30;;;1.30;99.90;;;;;;4957794;28;20447;-84
2022/04/03 03:17:27;;;;;;;25.53;14.90;;;1.30;99.90;;;;;;4956919;28;20232;-84
2022/04/03 03:19:52;;;;;;;26.43;17.50;;;1.30;99.90;;;;;;4946319;28;20568;-84
2022/04/03 03:22:19;;;;;;;20.50;14.50;;;1.30;99.90;;;;;;4956761;28;21021;-84
2022/04/03 03:24:45;;;;;;;17.70;12.30;;;1.40;99.90;;;;;;4959526;28;20615;-84
2022/04/03 03:27:10;;;;;;;13.50;10.57;;;1.40;99.90;;;;;;4953189;28;20468;-84
2022/04/03 03:29:36;;;;;;;17.50;12.07;;;1.40;99.90;;;;;;4944014;28;20193;-85
2022/04/03 03:32:02;;;;;;;15.40;11.70;;;1.50;99.90;;;;;;4939732;28;20277;-83
2022/04/03 03:34:30;;;;;;;14.17;11.00;;;1.50;99.90;;;;;;4945355;28;21163;-83
2022/04/03 03:36:56;;;;;;;15.23;11.23;;;1.40;99.90;;;;;;4965251;28;20450;-83
2022/04/03 03:39:22;;;;;;;18.80;11.33;;;1.40;99.90;;;;;;4943818;28;20492;-83
2022/04/03 03:41:49;;;;;;;14.40;11.33;;;1.50;99.90;;;;;;4955124;28;20606;-83
2022/04/03 03:44:15;;;;;;;14.60;12.97;;;1.60;99.90;;;;;;4949220;28;20408;-82
2022/04/03 03:46:41;;;;;;;14.50;12.20;;;1.50;99.90;;;;;;4957830;28;20450;-83
2022/04/03 03:49:23;;;;;;;13.13;11.70;;;1.50;99.90;;;;;;4945286;28;20255;-83
2022/04/03 03:51:49;;;;;;;13.47;10.93;;;1.50;99.90;;;;;;4950040;28;20247;-84
2022/04/03 03:54:14;;;;;;;13.10;10.63;;;1.50;99.90;;;;;;4960981;28;20441;-84
2022/04/03 03:56:40;;;;;;;11.37;10.10;;;1.50;99.90;;;;;;4944586;28;20194;-83
2022/04/03 03:59:06;;;;;;;15.27;10.90;;;1.50;99.90;;;;;;4948483;28;20177;-83
2022/04/03 04:01:31;;;;;;;14.97;11.17;;;1.50;99.90;;;;;;4941826;28;20879;-84
2022/04/03 04:03:57;;;;;;;12.83;10.37;;;1.50;99.90;;;;;;4947589;28;20273;-84
2022/04/03 04:06:27;;;;;;;13.70;10.43;;;1.50;99.90;;;;;;4944697;28;20555;-84
2022/04/03 04:08:53;;;;;;;13.03;11.13;;;1.50;99.90;;;;;;4970808;28;20193;-83
2022/04/03 04:11:18;;;;;;;12.60;10.53;;;1.50;99.90;;;;;;4946042;28;20879;-83
2022/04/03 04:13:44;;;;;;;12.30;10.60;;;1.50;99.90;;;;;;4951978;28;20181;-83
2022/04/03 04:16:10;;;;;;;13.40;11.70;;;1.50;99.90;;;;;;4963646;28;20635;-83
2022/04/03 04:18:36;;;;;;;15.33;11.67;;;1.50;99.90;;;;;;4965212;28;20185;-84
2022/04/03 04:21:05;;;;;;;14.63;11.20;;;1.50;99.90;;;;;;4951648;28;20437;-84
2022/04/03 04:23:31;;;;;;;16.33;11.60;;;1.50;99.90;;;;;;4975367;28;20531;-84
2022/04/03 04:25:58;;;;;;;13.50;11.30;;;1.40;99.90;;;;;;4947617;28;20675;-83
2022/04/03 04:28:24;;;;;;;15.00;12.23;;;1.30;99.90;;;;;;4964848;28;20441;-83
2022/04/03 04:30:49;;;;;;;16.17;11.37;;;1.30;99.90;;;;;;4964338;28;20947;-84
2022/04/03 04:33:15;;;;;;;18.13;11.27;;;1.40;99.90;;;;;;4943178;28;20455;-84
2022/04/03 04:35:41;;;;;;;13.00;10.67;;;1.40;99.90;;;;;;4946672;28;20186;-84
2022/04/03 04:38:06;;;;;;;14.30;11.90;;;1.30;99.90;;;;;;4948762;28;20186;-84
2022/04/03 04:40:32;;;;;;;16.07;12.07;;;1.20;99.90;;;;;;4948320;28;20239;-84
2022/04/03 04:42:58;;;;;;;15.40;11.80;;;1.30;99.90;;;;;;4935944;28;20864;-84
2022/04/03 04:45:25;;;;;;;15.23;11.57;;;1.30;99.90;;;;;;4948985;28;20183;-84
2022/04/03 04:47:59;;;;;;;14.67;12.47;;;1.40;99.90;;;;;;4940141;28;22129;-84
2022/04/03 04:50:25;;;;;;;16.37;11.90;;;1.30;99.90;;;;;;4944628;28;20551;-83
2022/04/03 04:52:51;;;;;;;16.10;12.30;;;1.40;99.90;;;;;;4957099;28;20598;-84
2022/04/03 04:55:19;;;;;;;23.67;15.70;;;1.20;99.90;;;;;;4948687;28;20903;-84
2022/04/03 04:57:53;;;;;;;17.83;12.70;;;1.20;99.90;;;;;;4943852;28;21404;-84
2022/04/03 05:00:20;;;;;;;16.60;12.70;;;1.10;99.90;;;;;;4951283;28;20970;-83
2022/04/03 05:02:46;;;;;;;16.30;12.93;;;1.10;99.90;;;;;;4958088;28;20486;-84
2022/04/03 05:05:14;;;;;;;17.07;12.80;;;1.10;99.90;;;;;;4972199;28;20990;-83
2022/04/03 05:07:42;;;;;;;17.13;13.50;;;1.10;99.90;;;;;;4969171;28;20819;-84
2022/04/03 05:10:09;;;;;;;14.70;12.63;;;1.10;99.90;;;;;;4964858;28;20452;-83
2022/04/03 05:12:35;;;;;;;19.23;13.60;;;1.10;99.90;;;;;;4963831;28;20505;-84
2022/04/03 05:15:01;;;;;;;17.63;13.47;;;1.20;99.90;;;;;;4955557;28;20441;-84
2022/04/03 05:17:28;;;;;;;16.50;11.47;;;1.40;99.90;;;;;;4943590;28;21025;-83
2022/04/03 05:19:54;;;;;;;15.07;11.10;;;1.40;99.90;;;;;;4958208;28;20467;-84
2022/04/03 05:22:23;;;;;;;15.37;12.37;;;1.40;99.90;;;;;;4946878;28;20999;-83
2022/04/03 05:24:53;;;;;;;14.10;11.43;;;1.50;99.90;;;;;;4954241;28;20445;-83
2022/04/03 05:27:19;;;;;;;14.90;12.60;;;1.50;99.90;;;;;;4955855;28;20985;-84
2022/04/03 05:29:45;;;;;;;15.77;12.47;;;1.50;99.90;;;;;;4940045;28;20768;-83
2022/04/03 05:32:11;;;;;;;16.27;12.70;;;1.60;99.90;;;;;;4939954;28;20438;-84
2022/04/03 05:34:37;;;;;;;14.40;12.23;;;1.60;99.90;;;;;;4939429;28;20499;-84
2022/04/03 05:37:03;;;;;;;14.60;11.50;;;1.60;99.90;;;;;;4952608;28;20436;-83
2022/04/03 05:39:29;;;;;;;15.17;12.80;;;1.70;99.90;;;;;;4942924;28;20194;-84
2022/04/03 05:41:55;;;;;;;13.37;11.70;;;1.60;99.90;;;;;;4944242;28;20504;-84
2022/04/03 05:44:21;;;;;;;14.30;11.60;;;1.60;99.90;;;;;;4941301;28;20183;-83
2022/04/03 05:46:48;;;;;;;15.10;11.83;;;1.70;99.90;;;;;;4954491;28;20460;-83
2022/04/03 05:49:14;;;;;;;12.87;11.03;;;1.60;99.90;;;;;;4953943;28;20458;-83
2022/04/03 05:51:40;;;;;;;14.10;11.90;;;1.70;99.90;;;;;;4943583;28;20453;-84
2022/04/03 05:54:05;;;;;;;16.90;11.07;;;1.70;99.90;;;;;;4951087;28;22384;-83
2022/04/03 05:56:31;;;;;;;14.37;12.03;;;1.60;99.90;;;;;;4951021;28;20452;-83
2022/04/03 05:58:57;;;;;;;13.30;10.67;;;1.60;99.90;;;;;;4963197;28;21379;-83
2022/04/03 06:01:23;;;;;;;14.60;11.67;;;1.70;99.90;;;;;;4959017;28;20316;-84
2022/04/03 06:03:50;;;;;;;13.13;11.30;;;1.70;99.90;;;;;;4950647;28;20441;-84
2022/04/03 06:06:18;;;;;;;14.80;11.60;;;1.80;99.90;;;;;;4948277;28;20835;-85
2022/04/03 06:08:44;;;;;;;15.70;11.40;;;1.80;99.90;;;;;;4947659;28;20458;-85
2022/04/03 06:11:12;;;;;;;11.77;10.33;;;1.80;99.90;;;;;;4965010;28;20501;-83
2022/04/03 06:13:37;;;;;;;13.73;10.37;;;1.90;99.90;;;;;;4958410;28;20967;-85
2022/04/03 06:16:06;;;;;;;11.27;10.07;;;2.00;99.90;;;;;;4946323;28;20188;-85
2022/04/03 06:18:31;;;;;;;13.83;10.53;;;2.20;99.90;;;;;;4948600;28;20518;-84
2022/04/03 06:20:57;;;;;;;10.53;9.43;;;2.30;99.90;;;;;;4963388;28;22308;-84
2022/04/03 06:23:23;;;;;;;13.07;9.80;;;2.40;99.90;;;;;;4973988;28;20192;-84
2022/04/03 06:25:58;;;;;;;10.80;9.17;;;2.40;99.90;;;;;;4956168;28;20181;-84
2022/04/03 06:28:25;;;;;;;12.60;10.27;;;2.60;99.90;;;;;;4952263;28;20472;-83
2022/04/03 06:30:54;;;;;;;10.80;9.47;;;2.50;99.90;;;;;;4949149;28;20525;-84
2022/04/03 06:33:22;;;;;;;12.60;8.93;;;2.60;99.90;;;;;;4952025;28;20464;-84
2022/04/03 06:35:47;;;;;;;13.57;10.00;;;2.60;99.90;;;;;;4950431;28;20433;-84
2022/04/03 06:38:15;;;;;;;10.80;9.20;;;2.70;99.90;;;;;;4947463;28;20455;-83
2022/04/03 06:40:57;;;;;;;10.43;8.70;;;2.70;99.90;;;;;;4946418;28;20643;-84
2022/04/03 06:43:25;;;;;;;10.90;9.27;;;2.60;99.90;;;;;;4968712;28;20461;-84
2022/04/03 06:45:55;;;;;;;9.73;8.60;;;2.70;99.90;;;;;;4964379;28;21809;-84
2022/04/03 06:48:21;;;;;;;9.80;8.80;;;2.90;99.90;;;;;;4969369;28;20558;-85
2022/04/03 06:50:47;;;;;;;9.03;8.13;;;3.20;99.90;;;;;;4947573;28;20908;-86
2022/04/03 06:53:13;;;;;;;13.37;8.60;;;3.50;99.90;;;;;;4951444;28;20445;-85
2022/04/03 06:55:39;;;;;;;10.63;8.90;;;3.50;99.90;;;;;;4961416;28;20204;-84
2022/04/03 06:58:05;;;;;;;11.50;9.70;;;3.50;99.90;;;;;;4944567;28;20449;-84
2022/04/03 07:00:31;;;;;;;9.70;8.60;;;3.70;99.90;;;;;;4952537;28;20567;-85
2022/04/03 07:02:56;;;;;;;9.70;7.63;;;3.90;99.90;;;;;;4954215;28;20480;-85
2022/04/03 07:05:22;;;;;;;9.30;8.20;;;4.10;99.90;;;;;;4940392;28;21012;-84
2022/04/03 07:07:54;;;;;;;10.20;8.43;;;4.00;99.90;;;;;;4955405;28;20223;-84
2022/04/03 07:10:20;;;;;;;8.20;7.40;;;3.90;99.90;;;;;;4942481;28;20823;-84
2022/04/03 07:12:46;;;;;;;7.93;7.10;;;4.00;99.90;;;;;;4948788;28;20536;-84
2022/04/03 07:15:14;;;;;;;9.53;7.67;;;3.80;99.90;;;;;;4941062;28;20445;-85
2022/04/03 07:17:41;;;;;;;8.90;8.00;;;3.70;99.90;;;;;;4934035;28;21438;-84
2022/04/03 07:20:07;;;;;;;9.33;7.27;;;3.60;99.90;;;;;;4946532;28;20440;-84
2022/04/03 07:22:33;;;;;;;8.93;7.93;;;3.70;99.90;;;;;;4950976;28;20477;-84
2022/04/03 07:24:59;;;;;;;7.90;7.10;;;3.60;99.90;;;;;;4941370;28;20504;-85
2022/04/03 07:27:27;;;;;;;8.07;7.23;;;3.60;99.90;;;;;;4953690;28;20240;-85
2022/04/03 07:29:52;;;;;;;9.63;8.10;;;3.90;99.90;;;;;;4952655;28;20624;-85
2022/04/03 07:32:18;;;;;;;8.20;6.60;;;4.10;99.90;;;;;;4943173;28;20452;-84
2022/04/03 07:34:44;;;;;;;7.00;6.30;;;4.50;99.90;;;;;;4943420;28;20285;-85
2022/04/03 07:37:09;;;;;;;8.07;7.27;;;4.90;99.90;;;;;;4926111;28;20213;-85
2022/04/03 07:39:35;;;;;;;7.50;6.67;;;4.80;99.90;;;;;;4938764;28;20209;-85
2022/04/03 07:42:02;;;;;;;7.90;6.80;;;4.70;99.90;;;;;;4937531;28;20645;-85
2022/04/03 07:44:31;;;;;;;6.80;5.83;;;4.80;99.90;;;;;;4945817;28;20334;-85
2022/04/03 07:46:56;;;;;;;7.53;6.80;;;5.00;99.90;;;;;;4943764;28;20835;-86
2022/04/03 07:49:22;;;;;;;7.63;6.93;;;4.80;99.90;;;;;;4938836;28;20464;-86
2022/04/03 07:51:47;;;;;;;7.40;6.70;;;4.50;99.90;;;;;;4931450;28;20199;-84
2022/04/03 07:54:14;;;;;;;8.10;7.30;;;4.10;99.90;;;;;;4949120;28;20681;-84
2022/04/03 07:56:39;;;;;;;7.33;6.63;;;3.80;99.90;;;;;;4942609;28;20187;-85
2022/04/03 07:59:06;;;;;;;8.37;6.77;;;4.00;99.90;;;;;;4935847;28;20519;-85
2022/04/03 08:01:33;;;;;;;7.07;6.30;;;4.30;99.90;;;;;;4942027;28;20479;-85
2022/04/03 08:03:59;;;;;;;7.10;6.50;;;4.80;99.90;;;;;;4946073;28;20446;-85
2022/04/03 08:06:25;;;;;;;6.90;6.27;;;5.30;99.90;;;;;;4959054;28;20818;-85
2022/04/03 08:08:50;;;;;;;6.83;6.23;;;5.50;99.90;;;;;;4933578;28;20262;-85
2022/04/03 08:11:17;;;;;;;7.33;6.60;;;5.80;99.90;;;;;;4938044;28;20923;-85
2022/04/03 08:13:43;;;;;;;6.73;6.07;;;5.90;99.90;;;;;;4948252;28;20500;-85
2022/04/03 08:16:08;;;;;;;6.27;5.67;;;6.30;99.90;;;;;;4934366;28;20480;-85
2022/04/03 08:18:34;;;;;;;7.27;6.53;;;6.50;99.90;;;;;;4952244;28;20960;-86
2022/04/03 08:21:03;;;;;;;6.80;6.20;;;6.30;99.90;;;;;;4947143;28;20189;-85
2022/04/03 08:23:34;;;;;;;6.50;5.90;;;6.30;99.90;;;;;;4942360;28;20667;-85
2022/04/03 08:25:59;;;;;;;7.37;6.67;;;6.40;99.90;;;;;;4936637;28;21032;-86
2022/04/03 08:28:25;;;;;;;6.67;6.07;;;6.10;99.90;;;;;;4937103;28;20475;-86
2022/04/03 08:30:51;;;;;;;6.13;5.53;;;6.00;99.90;;;;;;4942554;28;20190;-85
2022/04/03 08:33:16;;;;;;;7.13;6.17;;;6.10;99.90;;;;;;4945947;28;20191;-85
2022/04/03 08:35:42;;;;;;;5.63;5.13;;;6.20;99.90;;;;;;4943596;28;20435;-85
2022/04/03 08:38:08;;;;;;;7.10;5.50;;;6.10;99.90;;;;;;4940271;28;20287;-85
2022/04/03 08:40:34;;;;;;;9.03;5.93;;;5.50;99.90;;;;;;4942794;28;20186;-85
2022/04/03 08:43:01;;;;;;;6.97;6.00;;;4.80;99.90;;;;;;4945488;28;20486;-85
2022/04/03 08:45:27;;;;;;;7.00;5.77;;;4.50;99.90;;;;;;4941859;28;21152;-85
2022/04/03 08:47:57;;;;;;;6.97;6.27;;;4.30;99.90;;;;;;4945725;28;20472;-85
2022/04/03 08:50:28;;;;;;;6.47;5.77;;;3.90;99.90;;;;;;4942047;28;20524;-85
2022/04/03 08:52:56;;;;;;;7.57;6.83;;;3.80;99.90;;;;;;4946952;28;20453;-84
2022/04/03 08:55:22;;;;;;;8.50;6.60;;;3.60;99.90;;;;;;4945406;28;20442;-84
2022/04/03 08:57:48;;;;;;;7.73;6.93;;;3.70;99.90;;;;;;4947149;28;20456;-83
2022/04/03 09:00:15;;;;;;;7.23;6.47;;;3.60;99.90;;;;;;4940561;28;20460;-84
2022/04/03 09:02:42;;;;;;;6.40;5.80;;;3.90;99.90;;;;;;4945586;28;20481;-85
2022/04/03 09:05:09;;;;;;;7.57;6.87;;;4.30;99.90;;;;;;4937885;28;20585;-84
2022/04/03 09:07:35;;;;;;;6.03;5.53;;;4.80;99.90;;;;;;4940058;28;20545;-84
2022/04/03 09:10:08;;;;;;;6.40;5.67;;;5.20;99.90;;;;;;4941272;28;20447;-85
2022/04/03 09:12:51;;;;;;;6.80;5.07;;;5.30;99.90;;;;;;4937989;28;21409;-84
2022/04/03 09:15:19;;;;;;;5.47;4.97;;;5.60;99.90;;;;;;4940142;28;20449;-84
2022/04/03 09:17:52;;;;;;;5.10;4.33;;;5.90;99.90;;;;;;4941851;28;22472;-84
2022/04/03 09:20:20;;;;;;;5.33;4.83;;;6.00;99.90;;;;;;4957421;28;20469;-84
2022/04/03 09:22:50;;;;;;;4.60;4.20;;;6.00;99.90;;;;;;4949130;28;20992;-85
2022/04/03 09:25:22;;;;;;;5.50;4.93;;;6.00;99.90;;;;;;4958151;28;20442;-84
2022/04/03 09:27:50;;;;;;;5.53;4.50;;;5.70;99.90;;;;;;4944486;28;20448;-84
2022/04/03 09:30:17;;;;;;;5.00;4.60;;;5.40;99.90;;;;;;4942143;28;20435;-85
2022/04/03 09:32:55;;;;;;;4.97;4.50;;;5.40;99.90;;;;;;4945896;28;20464;-83
2022/04/03 09:35:29;;;;;;;5.40;4.90;;;6.00;99.90;;;;;;4959808;28;21076;-85
2022/04/03 09:38:15;;;;;;;5.30;4.90;;;6.80;99.90;;;;;;4937390;28;20451;-84
2022/04/03 09:40:49;;;;;;;4.27;3.87;;;7.50;98.50;;;;;;4940891;28;20871;-85
2022/04/03 09:43:31;;;;;;;5.40;4.93;;;8.00;93.20;;;;;;4944900;28;20485;-84
2022/04/03 09:45:58;;;;;;;4.53;4.23;;;7.40;95.30;;;;;;4940172;28;20651;-85
2022/04/03 09:48:31;;;;;;;6.10;4.50;;;7.10;96.10;;;;;;4951171;28;20440;-85
2022/04/03 09:51:02;;;;;;;4.53;4.13;;;6.40;96.80;;;;;;4947894;28;21348;-84
2022/04/03 09:53:29;;;;;;;4.30;3.90;;;6.10;97.10;;;;;;4952021;28;20568;-85
2022/04/03 09:55:55;;;;;;;4.43;4.03;;;5.60;97.60;;;;;;4956511;28;20690;-85
2022/04/03 09:58:22;;;;;;;4.87;4.20;;;5.50;98.50;;;;;;4942334;28;20452;-84
2022/04/03 10:00:48;;;;;;;5.97;5.40;;;5.60;97.90;;;;;;4938997;28;20448;-84
2022/04/03 10:03:14;;;;;;;5.17;4.10;;;5.80;98.50;;;;;;4956704;28;20483;-85
2022/04/03 10:05:41;;;;;;;5.77;5.17;;;6.10;97.80;;;;;;4937861;28;20449;-84
2022/04/03 10:08:07;;;;;;;5.93;5.33;;;6.10;98.20;;;;;;4937873;28;20483;-83
2022/04/03 10:10:42;;;;;;;5.73;4.90;;;5.80;99.10;;;;;;4945580;28;21544;-85
2022/04/03 10:13:10;;;;;;;5.30;4.80;;;5.80;99.60;;;;;;4941576;28;20446;-82
2022/04/03 10:15:38;;;;;;;6.33;4.47;;;5.70;99.90;;;;;;4940585;28;20556;-84
2022/04/03 10:18:05;;;;;;;6.80;6.10;;;5.40;99.80;;;;;;4942951;28;20821;-83
2022/04/03 10:20:30;;;;;;;6.17;5.57;;;5.00;99.90;;;;;;4964863;28;21313;-83
2022/04/03 10:23:04;;;;;;;5.37;4.67;;;4.90;99.90;;;;;;4957028;28;20624;-85
2022/04/03 10:25:35;;;;;;;5.20;4.33;;;4.70;99.90;;;;;;4961934;28;20293;-85
2022/04/03 10:28:05;;;;;;;5.90;4.70;;;4.50;99.90;;;;;;4945557;28;20904;-85
2022/04/03 10:30:45;;;;;;;5.20;4.80;;;4.30;99.90;;;;;;4942481;28;20483;-87
2022/04/03 10:33:19;;;;;;;4.43;4.00;;;4.30;99.90;;;;;;4942353;28;20503;-84
2022/04/03 10:35:50;;;;;;;4.87;4.13;;;3.80;99.90;;;;;;4950630;28;21749;-84
2022/04/03 10:38:18;;;;;;;5.30;3.60;;;3.80;99.90;;;;;;4946780;28;20444;-85
2022/04/03 10:41:01;;;;;;;4.03;3.73;;;3.70;99.90;;;;;;4947441;28;20460;-86
2022/04/03 10:43:31;;;;;;;4.40;3.47;;;3.80;99.90;;;;;;4947192;28;21235;-84
2022/04/03 10:45:57;;;;;;;3.40;3.10;;;3.90;99.90;;;;;;4948283;28;20494;-84
2022/04/03 10:48:26;;;;;;;3.87;3.57;;;4.20;99.90;;;;;;4963941;28;20544;-84
2022/04/03 10:51:05;;;;;;;4.20;3.80;;;4.40;99.90;;;;;;4945702;28;21015;-84
2022/04/03 10:53:33;;;;;;;4.50;4.10;;;4.40;99.90;;;;;;4960643;28;20602;-84
2022/04/03 10:56:07;;;;;;;5.03;4.60;;;4.30;99.90;;;;;;4966178;28;20441;-84
2022/04/03 10:58:41;;;;;;;5.40;4.80;;;4.00;99.90;;;;;;4947706;28;21120;-84
2022/04/03 11:01:10;;;;;;;4.80;4.40;;;4.20;99.90;;;;;;4958164;28;21040;-84
2022/04/03 11:03:37;;;;;;;6.90;5.23;;;4.50;99.90;;;;;;4956527;28;21285;-84
2022/04/03 11:06:20;;;;;;;5.73;4.13;;;4.40;99.90;;;;;;4960544;28;20484;-84
2022/04/03 11:09:11;;;;;;;4.53;4.10;;;4.40;99.90;;;;;;4961149;28;20460;-84
2022/04/03 11:11:57;;;;;;;4.20;3.90;;;4.50;99.90;;;;;;4935730;28;20496;-84
2022/04/03 11:14:49;;;;;;;4.20;3.80;;;4.80;99.90;;;;;;4945967;28;20508;-84
2022/04/03 11:17:14;;;;;;;4.07;3.77;;;5.10;99.90;;;;;;4956066;28;20892;-84
2022/04/03 11:19:43;;;;;;;5.37;4.87;;;5.10;99.90;;;;;;4946575;28;20541;-83
2022/04/03 11:22:13;;;;;;;4.10;3.80;;;5.40;99.90;;;;;;4949017;28;20970;-84
2022/04/03 11:24:42;;;;;;;4.20;3.80;;;5.40;99.90;;;;;;4963842;28;20476;-84
2022/04/03 11:27:09;;;;;;;3.90;3.60;;;5.60;99.10;;;;;;4972438;28;20454;-84
2022/04/03 11:29:37;;;;;;;3.60;3.30;;;5.90;97.80;;;;;;4954936;28;20450;-85
2022/04/03 11:32:06;;;;;;;6.47;5.87;;;6.30;97.50;;;;;;4943802;28;20459;-84
2022/04/03 11:34:37;;;;;;;8.87;6.03;;;6.70;97.00;;;;;;4949404;28;20452;-84
2022/04/03 11:37:18;;;;;;;8.80;3.63;;;6.70;95.80;;;;;;4961685;28;20481;-84
2022/04/03 11:40:06;;;;;;;4.43;3.17;;;6.60;96.10;;;;;;4955713;28;20458;-84
2022/04/03 11:42:39;;;;;;;4.40;4.00;;;6.50;96.30;;;;;;4941762;28;20477;-85
2022/04/03 11:45:08;;;;;;;4.50;3.80;;;6.20;95.80;;;;;;4941821;28;20449;-84
2022/04/03 11:47:33;;;;;;;4.00;3.70;;;5.80;96.00;;;;;;4946361;28;20486;-84
2022/04/03 11:50:11;;;;;;;6.27;4.10;;;5.90;97.50;;;;;;4958760;28;21088;-84
2022/04/03 11:52:38;;;;;;;3.90;3.60;;;6.10;97.00;;;;;;4958694;28;20250;-84
2022/04/03 11:55:12;;;;;;;9.60;8.57;;;5.70;97.30;;;;;;4951730;28;20463;-84
2022/04/03 11:57:38;;;;;;;6.57;5.97;;;5.10;98.10;;;;;;4955425;28;20769;-85
2022/04/03 12:00:07;;;;;;;7.60;6.90;;;4.70;99.90;;;;;;4947722;28;20458;-86
2022/04/03 12:02:32;;;;;;;5.30;4.33;;;4.60;99.90;;;;;;4944004;28;20629;-85
2022/04/03 12:04:58;;;;;;;5.93;4.40;;;4.90;99.90;;;;;;4943056;28;20442;-85
2022/04/03 12:07:26;;;;;;;4.90;4.40;;;5.50;99.90;;;;;;4949967;28;20481;-85
2022/04/03 12:09:52;;;;;;;5.37;4.30;;;6.20;99.40;;;;;;4960037;28;20188;-84
2022/04/03 12:12:25;;;;;;;4.27;3.87;;;6.30;97.20;;;;;;4939706;28;21763;-86
2022/04/03 12:14:51;;;;;;;4.50;4.10;;;6.70;97.90;;;;;;4945841;28;20458;-86
2022/04/03 12:17:41;;;;;;;5.20;4.27;;;6.20;97.20;;;;;;4943678;28;20512;-85
2022/04/03 12:20:48;;;;;;;5.03;4.53;;;5.90;97.60;;;;;;4958261;28;20204;-85
2022/04/03 12:23:36;;;;;;;5.20;4.10;;;6.10;98.40;;;;;;4955137;28;21374;-85
2022/04/03 12:26:02;;;;;;;5.43;4.93;;;6.50;97.40;;;;;;4946222;28;20441;-86
2022/04/03 12:28:27;;;;;;;5.37;4.30;;;7.60;97.70;;;;;;4937963;28;20543;-85
2022/04/03 12:30:59;;;;;;;3.80;3.50;;;8.60;93.90;;;;;;4956403;28;20196;-86
2022/04/03 12:33:24;;;;;;;4.20;3.80;;;9.10;92.30;;;;;;4943435;28;20206;-86
2022/04/03 12:36:14;;;;;;;4.47;4.10;;;9.60;90.50;;;;;;4942851;28;24521;-86
2022/04/03 12:38:48;;;;;;;4.13;3.57;;;9.40;87.00;;;;;;4951008;28;20189;-86
2022/04/03 12:41:14;;;;;;;4.10;3.70;;;9.90;85.60;;;;;;4943968;28;20439;-85
2022/04/03 12:44:03;;;;;;;5.33;4.30;;;8.90;81.50;;;;;;4962405;28;20460;-86
2022/04/03 12:47:10;;;;;;;4.13;3.73;;;8.30;82.30;;;;;;4965199;28;20560;-86
2022/04/03 12:49:36;;;;;;;4.03;3.37;;;7.50;88.60;;;;;;4959495;28;20482;-85
2022/04/03 12:52:02;;;;;;;5.17;3.97;;;6.30;92.90;;;;;;4949307;28;20460;-84
2022/04/03 12:54:41;;;;;;;3.67;3.10;;;5.70;93.40;;;;;;4947341;28;20682;-85